Time;durP1;ratioP1;P1;durP2;ratioP2;P2;SDS_P1;SDS_P2;PMS_P1;PMS_P2;Temp;Humidity;BMP_temperature;BMP_pressure;BME280_temperature;BME280_humidity;BME280_pressure;Samples;Min_cycle;Max_cycle;Signal;HPM_P1;HPM_P2
2022/11/13 00:00:11;;;;;;;36.65;22.50;;;;;;;9.41;77.38;101913.19;2188179;81;32933;-72
2022/11/13 00:03:14;;;;;;;32.33;21.30;;;;;;;9.37;77.33;101912.81;2187830;81;27616;-72
2022/11/13 00:06:18;;;;;;;32.35;20.32;;;;;;;9.35;77.40;101901.73;2186636;81;27750;-69
2022/11/13 00:09:19;;;;;;;31.52;20.05;;;;;;;9.36;77.42;101906.17;2172833;81;28115;-70
2022/11/13 00:12:21;;;;;;;33.23;22.52;;;;;;;9.35;77.52;101905.73;2173217;81;31074;-69
2022/11/13 00:15:23;;;;;;;36.33;21.87;;;;;;;9.36;77.51;101892.80;2173111;81;33886;-72
2022/11/13 00:18:24;;;;;;;31.23;20.60;;;;;;;9.37;77.42;101898.57;2173257;81;30344;-69
2022/11/13 00:21:26;;;;;;;34.75;21.62;;;;;;;9.33;77.36;101906.22;2173188;81;27698;-70
2022/11/13 00:24:28;;;;;;;35.23;21.82;;;;;;;9.31;77.39;101904.02;2173263;81;29604;-70
2022/11/13 00:27:31;;;;;;;33.20;20.85;;;;;;;9.28;77.42;101911.66;2173055;81;31965;-71
2022/11/13 00:30:32;;;;;;;31.57;20.62;;;;;;;9.26;77.40;101904.12;2173098;81;33753;-70
2022/11/13 00:33:34;;;;;;;30.35;19.60;;;;;;;9.24;77.38;101908.17;2173108;81;29300;-69
2022/11/13 00:36:36;;;;;;;32.28;19.17;;;;;;;9.22;77.38;101915.33;2173207;81;27610;-70
2022/11/13 00:39:37;;;;;;;29.55;20.00;;;;;;;9.21;77.38;101913.56;2173222;81;28626;-72
2022/11/13 00:42:39;;;;;;;33.05;19.50;;;;;;;9.20;77.47;101916.25;2173069;81;30997;-71
2022/11/13 00:45:41;;;;;;;32.93;19.65;;;;;;;9.18;77.45;101911.41;2173221;81;32946;-71
2022/11/13 00:48:42;;;;;;;28.98;17.67;;;;;;;9.15;77.33;101908.31;2173253;81;29454;-70
2022/11/13 00:51:44;;;;;;;27.77;17.12;;;;;;;9.11;77.33;101897.23;2173221;81;27665;-72
2022/11/13 00:54:45;;;;;;;26.15;18.15;;;;;;;9.09;77.30;101897.75;2173192;81;28230;-71
2022/11/13 00:57:47;;;;;;;32.15;19.05;;;;;;;9.10;77.34;101892.83;2173023;81;31011;-70
2022/11/13 01:00:49;;;;;;;27.87;19.10;;;;;;;9.06;77.35;101890.64;2173078;81;32951;-70
2022/11/13 01:03:50;;;;;;;32.33;19.12;;;;;;;9.06;77.31;101893.78;2172693;81;29390;-70
2022/11/13 01:06:52;;;;;;;31.55;19.73;;;;;;;9.05;77.41;101890.69;2174691;81;27731;-70
2022/11/13 01:09:54;;;;;;;30.70;19.50;;;;;;;9.04;77.41;101884.44;2182550;81;28663;-71
2022/11/13 01:12:55;;;;;;;28.10;18.32;;;;;;;9.03;77.44;101876.45;2182406;81;31208;-70
2022/11/13 01:15:57;;;;;;;32.98;19.50;;;;;;;9.02;77.46;101878.23;2182473;81;33863;-69
2022/11/13 01:18:59;;;;;;;35.50;20.45;;;;;;;9.00;77.56;101870.72;2156672;82;29329;-70
2022/11/13 01:22:00;;;;;;;30.57;19.27;;;;;;;9.01;77.54;101867.58;2156716;82;27715;-69
2022/11/13 01:25:02;;;;;;;32.85;20.37;;;;;;;8.97;77.49;101869.44;2156977;82;28636;-67
2022/11/13 01:28:04;;;;;;;27.87;18.55;;;;;;;8.95;77.58;101867.23;2156807;82;31045;-69
2022/11/13 01:31:12;;;;;;;35.33;18.65;;;;;;;8.92;77.56;101859.27;2156711;82;32995;-69
2022/11/13 01:34:14;;;;;;;25.00;17.30;;;;;;;8.92;77.66;101859.27;2156863;82;29322;-69
2022/11/13 01:37:15;;;;;;;26.57;18.62;;;;;;;8.94;77.67;101854.78;2156909;82;28230;-70
2022/11/13 01:40:17;;;;;;;29.15;18.95;;;;;;;8.90;77.45;101851.73;2156998;82;28656;-69
2022/11/13 01:43:32;;;;;;;30.65;18.62;;;;;;;8.86;77.51;101854.91;2156925;82;31856;-70
2022/11/13 01:46:41;;;;;;;29.40;19.12;;;;;;;8.84;77.53;101853.19;2156838;82;32315;-69
2022/11/13 01:49:44;;;;;;;30.55;18.07;;;;;;;8.81;77.66;101844.31;2182471;81;29547;-69
2022/11/13 01:52:46;;;;;;;33.85;19.77;;;;;;;8.79;77.62;101845.23;2182419;81;28416;-69
2022/11/13 01:55:48;;;;;;;31.82;18.57;;;;;;;8.75;77.50;101848.41;2182649;81;28646;-70
2022/11/13 01:58:57;;;;;;;30.90;20.90;;;;;;;8.73;77.62;101838.20;2118497;84;31045;-68
2022/11/13 02:02:00;;;;;;;34.25;20.75;;;;;;;8.70;77.63;101832.04;2173459;81;33732;-71
2022/11/13 02:05:02;;;;;;;33.05;22.95;;;;;;;8.69;77.69;101835.62;2173646;81;29414;-70
2022/11/13 02:08:03;;;;;;;37.70;24.27;;;;;;;8.67;77.64;101828.98;2170684;81;27704;-68
2022/11/13 02:11:06;;;;;;;36.53;23.98;;;;;;;8.65;77.65;101831.66;2167146;82;29539;-70
2022/11/13 02:14:08;;;;;;;43.73;24.12;;;;;;;8.65;77.62;101826.78;2167329;82;31051;-70
2022/11/13 02:17:15;;;;;;;39.27;25.17;;;;;;;8.65;77.66;101823.64;2167303;82;33149;-67
2022/11/13 02:20:20;;;;;;;39.80;24.32;;;;;;;8.64;77.58;101825.02;2167311;82;29329;-69
2022/11/13 02:23:48;;;;;;;40.33;24.77;;;;;;;8.62;77.67;101830.36;2168033;82;27744;-70
2022/11/13 02:26:51;;;;;;;37.73;23.60;;;;;;;8.62;77.62;101826.36;2167627;82;28660;-69
2022/11/13 02:29:53;;;;;;;34.95;22.45;;;;;;;8.60;77.54;101832.64;2167279;82;31031;-69
2022/11/13 02:32:57;;;;;;;35.65;23.12;;;;;;;8.60;77.54;101832.64;2167406;82;32927;-69
2022/11/13 02:35:58;;;;;;;36.73;25.08;;;;;;;8.60;77.46;101829.53;2167280;82;30124;-69
2022/11/13 02:39:05;;;;;;;41.53;24.60;;;;;;;8.60;77.50;101820.63;2167327;82;28185;-69
2022/11/13 02:42:07;;;;;;;36.85;23.80;;;;;;;8.60;77.57;101807.27;2167233;82;28636;-68
2022/11/13 02:45:09;;;;;;;35.08;23.35;;;;;;;8.60;77.52;101804.59;2167348;82;31094;-68
2022/11/13 02:48:11;;;;;;;36.13;25.25;;;;;;;8.60;77.36;101812.61;2167284;82;33738;-69
2022/11/13 02:51:13;;;;;;;41.25;26.42;;;;;;;8.58;77.36;101803.73;2167328;82;29372;-70
2022/11/13 02:54:14;;;;;;;38.35;26.05;;;;;;;8.59;77.45;101797.05;2167521;82;27632;-68
2022/11/13 02:57:16;;;;;;;39.45;26.42;;;;;;;8.60;77.44;101797.48;2167340;82;28651;-68
2022/11/13 03:00:18;;;;;;;36.28;25.92;;;;;;;8.60;77.36;101797.92;2167297;82;31151;-68
2022/11/13 03:03:19;;;;;;;43.45;26.77;;;;;;;8.60;77.42;101789.47;2167289;82;33002;-70
2022/11/13 03:06:21;;;;;;;37.73;25.75;;;;;;;8.61;77.40;101787.66;2167330;82;29368;-66
2022/11/13 03:09:23;;;;;;;40.95;27.62;;;;;;;8.56;77.15;101790.42;2172110;81;27731;-66
2022/11/13 03:12:24;;;;;;;44.18;26.68;;;;;;;8.53;77.20;101784.22;2173593;81;29624;-67
2022/11/13 03:15:26;;;;;;;42.48;28.32;;;;;;;8.53;77.41;101774.88;2118156;84;30991;-68
2022/11/13 03:18:28;;;;;;;42.40;27.22;;;;;;;8.55;77.51;101777.07;2173034;81;33045;-69
2022/11/13 03:21:30;;;;;;;44.30;28.05;;;;;;;8.55;77.49;101782.41;2173402;81;29496;-70
2022/11/13 03:24:32;;;;;;;49.80;28.27;;;;;;;8.55;77.47;101777.07;2173607;81;27723;-70
2022/11/13 03:27:33;;;;;;;43.52;28.07;;;;;;;8.56;77.41;101780.17;2173624;81;28609;-66
2022/11/13 03:30:35;;;;;;;47.40;28.20;;;;;;;8.54;77.37;101775.30;2118523;83;31265;-68
2022/11/13 03:33:37;;;;;;;43.35;26.52;;;;;;;8.55;77.46;101775.30;2174211;81;32916;-67
2022/11/13 03:36:38;;;;;;;43.63;28.07;;;;;;;8.55;77.42;101773.06;2118420;84;30103;-72
2022/11/13 03:39:40;;;;;;;46.90;28.47;;;;;;;8.57;77.47;101769.91;2173646;81;27735;-66
2022/11/13 03:42:42;;;;;;;48.05;29.32;;;;;;;8.58;77.45;101770.34;2156755;81;29601;-69
2022/11/13 03:45:47;;;;;;;46.70;28.98;;;;;;;8.57;77.45;101761.91;2118424;84;31843;-71
2022/11/13 03:48:48;;;;;;;48.50;29.57;;;;;;;8.56;77.38;101765.05;2173693;81;32952;-70
2022/11/13 03:51:50;;;;;;;51.05;31.37;;;;;;;8.55;77.36;101760.61;2156886;82;28566;-69
2022/11/13 03:54:51;;;;;;;50.78;30.20;;;;;;;8.55;77.41;101757.04;2157016;82;27734;-67
2022/11/13 03:57:53;;;;;;;46.55;29.37;;;;;;;8.53;77.33;101754.84;2156840;82;28654;-70
2022/11/13 04:00:55;;;;;;;45.52;29.07;;;;;;;8.53;77.43;101744.16;2156840;82;31009;-69
2022/11/13 04:03:57;;;;;;;49.20;29.20;;;;;;;8.51;77.34;101751.78;2156674;82;33773;-66
2022/11/13 04:06:58;;;;;;;46.50;29.75;;;;;;;8.52;77.43;101744.63;2156892;82;29304;-69
2022/11/13 04:10:00;;;;;;;49.35;31.75;;;;;;;8.54;77.49;101753.50;2150686;82;27737;-67
2022/11/13 04:13:02;;;;;;;45.95;29.48;;;;;;;8.55;77.44;101755.70;2149703;82;28723;-70
2022/11/13 04:16:04;;;;;;;51.70;31.20;;;;;;;8.54;77.45;101758.84;2150000;82;31918;-70
2022/11/13 04:19:05;;;;;;;50.48;30.10;;;;;;;8.55;77.58;101764.61;2149852;82;32988;-68
2022/11/13 04:22:07;;;;;;;55.15;33.38;;;;;;;8.57;77.67;101764.58;2149896;82;29294;-70
2022/11/13 04:25:09;;;;;;;53.48;30.77;;;;;;;8.57;77.52;101769.91;2150092;82;27704;-70
2022/11/13 04:28:10;;;;;;;57.95;33.55;;;;;;;8.55;77.51;101773.06;2150033;82;28699;-72
2022/11/13 04:31:12;;;;;;;49.80;30.23;;;;;;;8.55;77.54;101769.95;2149827;82;32018;-70
2022/11/13 04:34:14;;;;;;;55.83;34.27;;;;;;;8.56;77.58;101773.05;2149898;82;33729;-69
2022/11/13 04:37:15;;;;;;;53.55;32.93;;;;;;;8.53;77.47;101765.09;2149823;82;29334;-70
2022/11/13 04:40:17;;;;;;;55.85;30.97;;;;;;;8.54;77.42;101768.63;2150150;82;27710;-69
2022/11/13 04:43:19;;;;;;;54.05;32.55;;;;;;;8.53;77.44;101766.86;2149829;82;29504;-70
2022/11/13 04:46:20;;;;;;;52.98;33.05;;;;;;;8.49;77.41;101768.28;2149945;82;31686;-70
2022/11/13 04:49:22;;;;;;;49.38;31.90;;;;;;;8.48;77.51;101761.17;2149893;82;32944;-69
2022/11/13 04:52:24;;;;;;;48.33;32.28;;;;;;;8.47;77.50;101773.16;2149925;82;29531;-70
2022/11/13 04:55:25;;;;;;;52.58;32.13;;;;;;;8.45;77.51;101774.54;2150026;82;27790;-69
2022/11/13 04:58:27;;;;;;;51.20;31.80;;;;;;;8.45;77.54;101772.30;2149806;82;28649;-68
2022/11/13 05:01:29;;;;;;;46.37;30.40;;;;;;;8.44;77.52;101775.91;2149693;82;31089;-68
2022/11/13 05:04:30;;;;;;;51.73;31.77;;;;;;;8.42;77.43;101781.26;2150069;82;33764;-67
2022/11/13 05:07:32;;;;;;;51.13;31.25;;;;;;;8.41;77.43;101775.48;2149941;82;29317;-70
2022/11/13 05:10:33;;;;;;;48.87;30.52;;;;;;;8.39;77.51;101775.96;2149719;81;27665;-67
2022/11/13 05:13:36;;;;;;;56.92;31.42;;;;;;;8.42;77.65;101776.39;2150069;82;29510;-66
2022/11/13 05:16:40;;;;;;;49.25;31.15;;;;;;;8.42;77.59;101768.38;2150225;82;31025;-68
2022/11/13 05:19:42;;;;;;;51.55;31.42;;;;;;;8.43;77.64;101770.14;2150190;82;32952;-69
2022/11/13 05:22:43;;;;;;;48.52;31.12;;;;;;;8.43;77.61;101782.16;2149981;82;29362;-70
2022/11/13 05:25:45;;;;;;;45.08;29.42;;;;;;;8.42;77.55;101776.39;2150048;82;27659;-68
2022/11/13 05:28:46;;;;;;;48.30;30.35;;;;;;;8.42;77.62;101776.39;2149870;82;28641;-67
2022/11/13 05:31:48;;;;;;;48.70;30.97;;;;;;;8.40;77.56;101776.39;2149924;82;31086;-69
2022/11/13 05:34:50;;;;;;;47.60;28.98;;;;;;;8.41;77.65;101771.48;2149937;82;33772;-69
2022/11/13 05:37:51;;;;;;;47.08;28.83;;;;;;;8.43;77.63;101774.15;2150095;82;30267;-69
2022/11/13 05:40:53;;;;;;;52.70;31.02;;;;;;;8.41;77.53;101760.80;2150050;82;27808;-70
2022/11/13 05:43:56;;;;;;;45.48;29.67;;;;;;;8.42;77.65;101760.36;2150011;82;28647;-69
2022/11/13 05:46:58;;;;;;;54.23;32.05;;;;;;;8.43;77.73;101767.47;2149987;82;31811;-70
2022/11/13 05:49:59;;;;;;;51.00;31.95;;;;;;;8.44;77.63;101761.22;2149927;82;32912;-68
2022/11/13 05:53:01;;;;;;;54.45;30.57;;;;;;;8.43;77.71;101765.66;2150093;82;30129;-69
2022/11/13 05:56:10;;;;;;;53.50;33.30;;;;;;;8.44;77.83;101766.09;2150140;82;28228;-67
2022/11/13 05:59:12;;;;;;;48.20;31.02;;;;;;;8.45;77.74;101760.28;2149965;82;28669;-71
2022/11/13 06:02:13;;;;;;;47.08;29.30;;;;;;;8.45;77.72;101762.95;2149567;82;31082;-67
2022/11/13 06:05:15;;;;;;;47.50;30.25;;;;;;;8.42;77.65;101756.36;2149975;82;32960;-67
2022/11/13 06:08:16;;;;;;;46.10;28.32;;;;;;;8.36;77.56;101748.87;2150050;81;30165;-71
2022/11/13 06:11:22;;;;;;;46.58;29.87;;;;;;;8.33;77.62;101746.72;2159513;82;27731;-69
2022/11/13 06:14:24;;;;;;;47.60;29.15;;;;;;;8.31;77.65;101744.05;2188247;81;29476;-66
2022/11/13 06:17:26;;;;;;;47.75;29.10;;;;;;;8.30;77.77;101744.95;2187874;81;32068;-67
2022/11/13 06:20:28;;;;;;;49.58;30.10;;;;;;;8.29;77.73;101745.86;2188236;81;33736;-68
2022/11/13 06:23:32;;;;;;;49.23;30.90;;;;;;;8.26;77.69;101741.94;2188229;81;29321;-69
2022/11/13 06:26:35;;;;;;;49.67;31.80;;;;;;;8.25;77.79;101749.52;2188567;81;27638;-68
2022/11/13 06:29:36;;;;;;;53.45;30.08;;;;;;;8.27;77.86;101748.14;2188261;81;28638;-71
2022/11/13 06:32:38;;;;;;;45.15;29.82;;;;;;;8.26;77.86;101741.94;2188305;81;30981;-67
2022/11/13 06:35:39;;;;;;;48.23;29.00;;;;;;;8.25;77.91;101749.52;2188177;81;33723;-68
2022/11/13 06:38:42;;;;;;;47.60;29.98;;;;;;;8.23;77.96;101747.75;2188335;81;29313;-66
2022/11/13 06:41:43;;;;;;;48.28;29.50;;;;;;;8.20;77.96;101751.37;2188511;81;27655;-67
2022/11/13 06:44:45;;;;;;;52.17;31.68;;;;;;;8.17;78.06;101749.64;2188344;81;29434;-69
2022/11/13 06:47:47;;;;;;;52.30;32.50;;;;;;;8.15;78.08;101739.44;2188211;81;30301;-69
2022/11/13 06:50:50;;;;;;;48.08;30.62;;;;;;;8.14;78.14;101743.45;2187846;81;33139;-67
2022/11/13 06:53:51;;;;;;;48.05;30.50;;;;;;;8.14;78.21;101740.78;2188316;81;29352;-69
2022/11/13 06:56:53;;;;;;;48.83;30.88;;;;;;;8.13;78.30;101736.34;2188252;81;27633;-66
2022/11/13 06:59:55;;;;;;;49.63;31.42;;;;;;;8.12;78.43;101740.81;2188081;81;29463;-68
2022/11/13 07:02:56;;;;;;;51.83;31.48;;;;;;;8.13;78.50;101737.67;2188061;81;30420;-68
2022/11/13 07:06:08;;;;;;;53.35;33.18;;;;;;;8.12;78.49;101743.92;2188106;81;33710;-67
2022/11/13 07:09:09;;;;;;;50.75;33.38;;;;;;;8.14;78.63;101732.33;2185257;81;30183;-71
2022/11/13 07:12:11;;;;;;;48.35;31.95;;;;;;;8.15;78.63;101738.10;2173226;81;28316;-69
2022/11/13 07:15:15;;;;;;;57.78;34.53;;;;;;;8.17;78.69;101736.73;2173224;81;28082;-68
2022/11/13 07:18:16;;;;;;;56.63;34.98;;;;;;;8.18;78.73;101731.39;2173288;81;30796;-68
2022/11/13 07:21:18;;;;;;;52.90;33.90;;;;;;;8.23;78.77;101734.41;2173303;81;33680;-69
2022/11/13 07:24:20;;;;;;;58.42;35.52;;;;;;;8.28;78.82;101732.55;2172712;81;29415;-67
2022/11/13 07:27:21;;;;;;;51.48;34.63;;;;;;;8.29;78.66;101732.52;2173305;81;27620;-69
2022/11/13 07:30:23;;;;;;;55.50;35.70;;;;;;;8.35;78.86;101731.55;2173042;81;28643;-68
2022/11/13 07:33:25;;;;;;;56.77;35.58;;;;;;;8.39;78.68;101725.70;2173154;81;31027;-69
2022/11/13 07:36:26;;;;;;;55.88;34.20;;;;;;;8.44;78.74;101731.38;2172789;81;33098;-69
2022/11/13 07:39:28;;;;;;;54.83;34.90;;;;;;;8.50;78.53;101729.98;2173121;81;29329;-68
2022/11/13 07:42:33;;;;;;;53.10;34.78;;;;;;;8.54;78.40;101717.44;2173230;81;27508;-71
2022/11/13 07:45:35;;;;;;;56.83;36.77;;;;;;;8.55;78.08;101723.65;2173245;81;28637;-73
2022/11/13 07:48:36;;;;;;;53.15;34.60;;;;;;;8.59;78.35;101716.02;2173002;81;30967;-70
2022/11/13 07:51:38;;;;;;;49.10;32.65;;;;;;;8.64;78.17;101712.34;2173115;81;32995;-72
2022/11/13 07:54:39;;;;;;;49.50;33.28;;;;;;;8.71;78.08;101710.43;2172976;81;30219;-72
2022/11/13 07:57:41;;;;;;;51.18;33.30;;;;;;;8.75;78.00;101708.61;2173090;81;27574;-72
2022/11/13 08:00:43;;;;;;;52.67;34.33;;;;;;;8.80;77.93;101715.62;2173148;81;29453;-71
2022/11/13 08:03:45;;;;;;;56.18;34.38;;;;;;;8.86;77.85;101713.71;2173087;81;31057;-71
2022/11/13 08:06:48;;;;;;;47.00;32.35;;;;;;;8.91;77.87;101718.52;2173073;81;33709;-72
2022/11/13 08:09:50;;;;;;;56.13;34.33;;;;;;;8.96;77.54;101717.52;2177396;81;29339;-71
2022/11/13 08:13:02;;;;;;;49.05;33.70;;;;;;;9.02;77.62;101727.20;2187995;81;27540;-72
2022/11/13 08:16:04;;;;;;;55.43;32.73;;;;;;;9.08;77.53;101714.19;2188166;81;28651;-72
2022/11/13 08:19:06;;;;;;;51.33;32.33;;;;;;;9.18;77.58;101718.89;2188245;81;31020;-72
2022/11/13 08:22:07;;;;;;;53.38;31.97;;;;;;;9.23;77.38;101720.55;2188005;81;33705;-71
2022/11/13 08:25:09;;;;;;;54.83;35.45;;;;;;;9.31;76.97;101723.50;2188663;81;29311;-73
2022/11/13 08:28:11;;;;;;;50.98;33.75;;;;;;;9.32;77.02;101723.48;2188155;81;27600;-71
2022/11/13 08:31:14;;;;;;;51.15;32.85;;;;;;;9.35;76.96;101725.20;2188370;81;28862;-70
2022/11/13 08:34:16;;;;;;;51.63;33.42;;;;;;;9.39;76.62;101730.92;2188755;81;31125;-70
2022/11/13 08:37:18;;;;;;;49.10;31.97;;;;;;;9.40;76.68;101728.20;2188286;81;32950;-71
2022/11/13 08:40:19;;;;;;;50.83;33.40;;;;;;;9.47;76.74;101727.61;2188439;81;29309;-70
2022/11/13 08:43:21;;;;;;;54.63;34.60;;;;;;;9.50;76.51;101721.33;2188384;81;27683;-72
2022/11/13 08:46:23;;;;;;;52.50;33.38;;;;;;;9.54;76.49;101718.55;2188337;81;28634;-70
2022/11/13 08:49:24;;;;;;;54.00;33.88;;;;;;;9.58;76.50;101716.67;2188438;81;30987;-70
2022/11/13 08:52:26;;;;;;;57.88;36.45;;;;;;;9.62;76.25;101714.36;2188364;81;33081;-70
2022/11/13 08:55:28;;;;;;;61.25;37.83;;;;;;;9.63;76.30;101720.13;2188303;81;29378;-70
2022/11/13 08:58:30;;;;;;;62.48;38.23;;;;;;;9.63;75.96;101717.45;2188186;81;27873;-70
2022/11/13 09:01:31;;;;;;;63.40;38.02;;;;;;;9.64;75.84;101723.67;2188294;81;28637;-70
2022/11/13 09:04:33;;;;;;;60.55;36.58;;;;;;;9.64;75.75;101725.91;2188407;81;31152;-69
2022/11/13 09:07:34;;;;;;;62.40;36.40;;;;;;;9.67;75.37;101727.18;2188468;81;32933;-68
2022/11/13 09:10:36;;;;;;;59.23;37.60;;;;;;;9.69;75.51;101729.81;2188604;81;30629;-70
2022/11/13 09:13:38;;;;;;;60.35;37.25;;;;;;;9.72;75.61;101726.59;2188367;81;27730;-70
2022/11/13 09:16:39;;;;;;;60.20;36.20;;;;;;;9.76;75.46;101730.11;2188417;81;29499;-69
2022/11/13 09:19:41;;;;;;;59.95;35.48;;;;;;;9.77;75.47;101731.83;2188283;81;31010;-68
2022/11/13 09:22:43;;;;;;;58.40;38.30;;;;;;;9.78;75.18;101727.38;2188328;81;33100;-70
2022/11/13 09:25:44;;;;;;;60.05;36.77;;;;;;;9.75;75.36;101731.45;2188524;81;29318;-69
2022/11/13 09:28:46;;;;;;;57.80;32.78;;;;;;;9.80;75.25;101737.59;2188347;81;27533;-68
2022/11/13 09:31:48;;;;;;;59.33;35.48;;;;;;;9.83;74.81;101733.52;2188291;81;28639;-69
2022/11/13 09:34:49;;;;;;;65.28;36.90;;;;;;;9.87;75.50;101724.47;2188218;81;31055;-72
2022/11/13 09:37:52;;;;;;;60.98;37.88;;;;;;;9.99;75.38;101728.22;2188299;81;32370;-71
2022/11/13 09:40:58;;;;;;;58.10;35.43;;;;;;;10.03;74.98;101723.66;2188377;81;29354;-72
2022/11/13 09:44:03;;;;;;;55.98;35.40;;;;;;;10.04;74.48;101722.27;2188189;81;27632;-71
2022/11/13 09:47:17;;;;;;;45.48;27.90;;;;;;;10.01;74.03;101726.83;2150729;82;31296;-71
2022/11/13 09:50:28;;;;;;;58.08;37.17;;;;;;;9.93;74.20;101742.22;2150540;82;32103;-69
2022/11/13 09:53:34;;;;;;;58.48;34.95;;;;;;;9.90;74.68;101725.75;2150217;82;33004;-71
2022/11/13 09:56:46;;;;;;;61.75;36.03;;;;;;;9.96;74.58;101718.92;2150595;82;29547;-70
2022/11/13 10:00:02;;;;;;;70.65;44.70;;;;;;;9.95;74.57;101714.48;2147899;82;27544;-70
2022/11/13 10:03:31;;;;;;;56.00;35.05;;;;;;;9.95;74.59;101721.61;2150733;82;28727;-70
2022/11/13 10:06:47;;;;;;;61.83;38.55;;;;;;;9.98;74.41;101722.88;2149497;81;31040;-69
2022/11/13 10:10:15;;;;;;;60.05;36.20;;;;;;;9.92;74.13;101725.73;2171202;80;33052;-70
2022/11/13 10:13:27;;;;;;;56.05;34.10;;;;;;;9.84;74.02;101720.09;2204654;80;29331;-71
2022/11/13 10:16:51;;;;;;;53.20;34.25;;;;;;;9.83;73.95;101711.63;2205066;80;27733;-70
2022/11/13 10:20:01;;;;;;;60.50;35.33;;;;;;;9.78;73.94;101707.31;2204763;80;29619;-71
2022/11/13 10:23:21;;;;;;;56.40;34.55;;;;;;;9.77;74.31;101712.23;2204736;80;31024;-70
2022/11/13 10:26:26;;;;;;;56.85;35.00;;;;;;;9.76;73.88;101712.71;2204830;80;33101;-71
2022/11/13 10:29:29;;;;;;;57.60;35.85;;;;;;;9.66;73.94;101712.04;2204984;80;29468;-70
2022/11/13 10:32:32;;;;;;;56.25;35.45;;;;;;;9.60;74.00;101708.63;2204963;80;27678;-70
2022/11/13 10:35:46;;;;;;;58.25;35.65;;;;;;;9.57;74.15;101701.09;2204885;80;28653;-71
2022/11/13 10:39:08;;;;;;;62.95;39.30;;;;;;;9.54;74.16;101694.47;2210371;80;31861;-70
2022/11/13 10:42:25;;;;;;;60.90;37.48;;;;;;;9.59;74.56;101694.35;2210274;80;33357;-70
2022/11/13 10:45:27;;;;;;;66.25;38.60;;;;;;;9.60;74.04;101688.56;2210280;80;29312;-69
2022/11/13 10:48:34;;;;;;;66.33;38.95;;;;;;;9.56;74.41;101681.94;2210506;80;27744;-68
2022/11/13 10:51:36;;;;;;;66.05;39.40;;;;;;;9.62;74.40;101680.02;2209953;80;28753;-72
2022/11/13 10:54:37;;;;;;;61.23;38.20;;;;;;;9.70;74.38;101678.05;2210302;80;31185;-71
2022/11/13 10:57:39;;;;;;;59.00;37.78;;;;;;;9.76;74.47;101676.58;2210191;80;32987;-71
2022/11/13 11:00:43;;;;;;;60.73;38.05;;;;;;;9.81;74.13;101681.34;2210486;80;29467;-71
2022/11/13 11:03:49;;;;;;;59.30;37.45;;;;;;;9.78;74.00;101677.87;2210502;80;27719;-70
2022/11/13 11:06:51;;;;;;;63.70;38.20;;;;;;;9.81;74.04;101676.46;2210359;80;29481;-69
2022/11/13 11:09:52;;;;;;;63.28;39.85;;;;;;;9.84;74.02;101673.24;2210306;80;31785;-70
2022/11/13 11:12:57;;;;;;;58.52;36.75;;;;;;;9.83;73.81;101673.30;2203928;80;34106;-68
2022/11/13 11:16:01;;;;;;;62.75;39.48;;;;;;;9.85;73.85;101674.11;2141104;83;29364;-70
2022/11/13 11:19:07;;;;;;;63.10;40.53;;;;;;;9.84;73.76;101665.22;2115774;83;27736;-69
2022/11/13 11:22:14;;;;;;;66.65;40.40;;;;;;;9.82;74.01;101660.83;2137478;83;28666;-64
2022/11/13 11:25:31;;;;;;;71.53;41.05;;;;;;;9.92;73.80;101669.04;2137600;83;31001;-68
2022/11/13 11:28:40;;;;;;;63.85;39.25;;;;;;;10.01;74.12;101662.58;2201365;80;32396;-65
2022/11/13 11:31:56;;;;;;;65.65;38.60;;;;;;;10.11;73.98;101662.75;2198926;80;30086;-65
2022/11/13 11:35:06;;;;;;;66.60;38.45;;;;;;;10.22;73.75;101658.45;2205433;80;27670;-66
2022/11/13 11:38:34;;;;;;;58.70;36.88;;;;;;;10.31;73.38;101650.64;2214211;80;29474;-65
2022/11/13 11:41:41;;;;;;;62.62;37.93;;;;;;;10.36;73.54;101651.84;2213559;80;31029;-66
2022/11/13 11:45:07;;;;;;;62.25;39.18;;;;;;;10.44;73.08;101645.39;2202547;80;33782;-65
2022/11/13 11:48:19;;;;;;;61.02;37.55;;;;;;;10.47;72.83;101641.30;2211697;80;30478;-67
2022/11/13 11:51:31;;;;;;;62.98;40.20;;;;;;;10.43;72.74;101635.59;2209251;80;27852;-68
2022/11/13 11:54:50;;;;;;;60.50;37.73;;;;;;;10.47;72.76;101633.26;2191581;80;28648;-68
2022/11/13 11:58:17;;;;;;;61.53;38.23;;;;;;;10.43;72.18;101628.91;2205386;80;31243;-67
2022/11/13 12:02:13;;;;;;;58.75;38.13;;;;;;;10.34;71.96;101621.96;2210833;80;33802;-67
2022/11/13 12:05:44;;;;;;;58.92;36.75;;;;;;;10.27;72.26;101618.16;2212681;80;29514;-68
2022/11/13 12:08:53;;;;;;;58.20;35.98;;;;;;;10.25;72.60;101612.85;2186325;80;27624;-66
2022/11/13 12:12:12;;;;;;;60.83;35.33;;;;;;;10.11;71.94;101606.99;2217479;79;28641;-67
2022/11/13 12:15:19;;;;;;;64.62;38.17;;;;;;;9.98;72.32;101606.42;2215032;79;31039;-67
2022/11/13 12:18:47;;;;;;;65.20;39.78;;;;;;;9.90;72.31;101607.97;2220320;79;32960;-67
2022/11/13 12:22:06;;;;;;;59.50;38.08;;;;;;;9.86;72.62;101603.16;2213269;79;29431;-66
2022/11/13 12:25:47;;;;;;;62.03;36.40;;;;;;;9.85;72.72;101598.72;2217854;79;28320;-65
2022/11/13 12:29:30;;;;;;;63.33;39.03;;;;;;;9.86;72.83;101593.79;2205268;79;28826;-65
2022/11/13 12:33:05;;;;;;;62.88;38.42;;;;;;;9.90;73.21;101587.89;2202475;79;31018;-67
2022/11/13 12:36:10;;;;;;;65.92;39.38;;;;;;;9.94;73.14;101595.38;2217776;79;32403;-65
2022/11/13 12:39:46;;;;;;;63.78;39.58;;;;;;;9.85;72.72;101588.45;2220415;79;29406;-68
2022/11/13 12:42:58;;;;;;;69.07;40.25;;;;;;;9.79;73.00;101587.30;2192278;79;27712;-66
2022/11/13 12:46:07;;;;;;;72.67;40.78;;;;;;;9.74;73.12;101584.75;2187367;81;28671;-68
2022/11/13 12:49:28;;;;;;;75.22;47.08;;;;;;;9.68;73.04;101581.73;2192490;79;31314;-64
2022/11/13 12:52:29;;;;;;;62.58;39.83;;;;;;;9.60;73.10;101576.19;2220630;79;33144;-65
2022/11/13 12:55:37;;;;;;;71.22;41.92;;;;;;;9.50;73.06;101579.08;2210710;80;29792;-64
2022/11/13 12:58:39;;;;;;;73.95;45.43;;;;;;;9.47;73.22;101571.12;2220177;79;27634;-66
2022/11/13 13:01:57;;;;;;;69.05;40.30;;;;;;;9.43;73.48;101574.81;2222830;80;29418;-66
2022/11/13 13:05:22;;;;;;;72.58;43.52;;;;;;;9.35;73.32;101572.29;2221172;79;32124;-63
2022/11/13 13:09:07;;;;;;;71.90;41.48;;;;;;;9.27;73.63;101562.25;2210253;80;32994;-63
2022/11/13 13:12:53;;;;;;;67.50;39.25;;;;;;;9.26;73.88;101564.50;2209438;79;29503;-64
2022/11/13 13:16:01;;;;;;;67.05;41.48;;;;;;;9.25;73.67;101562.30;2207940;80;27780;-64
2022/11/13 13:19:25;;;;;;;75.65;40.15;;;;;;;9.19;73.76;101542.82;2204081;80;27675;-64
2022/11/13 13:22:30;;;;;;;71.62;40.52;;;;;;;9.19;73.86;101544.16;2204545;80;31131;-64
2022/11/13 13:25:35;;;;;;;71.12;40.23;;;;;;;9.14;73.88;101538.06;2212879;80;32993;-64
2022/11/13 13:28:40;;;;;;;74.67;43.73;;;;;;;9.10;73.97;101537.27;2213885;80;29326;-64
2022/11/13 13:31:47;;;;;;;71.75;40.30;;;;;;;9.09;74.07;101539.52;2211471;80;27713;-65
2022/11/13 13:35:24;;;;;;;70.83;40.70;;;;;;;9.07;74.14;101528.84;2212365;80;29783;-66
2022/11/13 13:38:58;;;;;;;66.87;38.00;;;;;;;9.05;74.13;101525.80;2210865;80;32178;-67
2022/11/13 13:42:14;;;;;;;70.12;41.55;;;;;;;8.97;74.23;101526.84;2197477;80;33029;-64
2022/11/13 13:45:55;;;;;;;69.12;40.58;;;;;;;8.92;74.33;101515.83;2211921;79;29498;-64
2022/11/13 13:49:05;;;;;;;73.05;41.77;;;;;;;8.94;74.48;101526.04;2205390;80;28146;-64
2022/11/13 13:52:06;;;;;;;69.40;41.55;;;;;;;8.95;74.53;101526.46;2212040;80;28849;-63
2022/11/13 13:55:19;;;;;;;77.20;42.90;;;;;;;8.90;74.42;101525.67;2213367;80;31287;-64
2022/11/13 13:58:33;;;;;;;70.17;41.18;;;;;;;8.83;74.51;101519.59;2213291;80;34146;-67
2022/11/13 14:01:37;;;;;;;70.47;41.23;;;;;;;8.73;74.57;101516.25;2201828;80;29660;-65
2022/11/13 14:04:48;;;;;;;71.25;41.80;;;;;;;8.72;74.89;101516.30;2212543;80;27674;-63
2022/11/13 14:07:49;;;;;;;80.15;42.30;;;;;;;8.68;74.93;101518.16;2207235;80;29905;-64
2022/11/13 14:10:51;;;;;;;86.82;47.30;;;;;;;8.69;74.99;101519.03;2214946;80;31376;-64
2022/11/13 14:13:53;;;;;;;81.75;43.35;;;;;;;8.63;74.92;101515.56;2212165;79;34218;-64